sensor_id;sensor_type;location;lat;lon;timestamp;temperature;humidity
5128;DHT22;2582;48.770;9.190;2022-10-16T00:01:27;17.80;99.90
5128;DHT22;2582;48.770;9.190;2022-10-16T00:03:53;17.80;99.90
5128;DHT22;2582;48.770;9.190;2022-10-16T00:06:21;17.80;99.90
5128;DHT22;2582;48.770;9.190;2022-10-16T00:08:47;17.80;99.90
5128;DHT22;2582;48.770;9.190;2022-10-16T00:11:15;17.80;99.90
5128;DHT22;2582;48.770;9.190;2022-10-16T00:13:42;17.70;99.90
5128;DHT22;2582;48.770;9.190;2022-10-16T00:16:09;17.60;99.90
5128;DHT22;2582;48.770;9.190;2022-10-16T00:18:36;17.60;99.90
5128;DHT22;2582;48.770;9.190;2022-10-16T00:21:11;17.60;99.90
5128;DHT22;2582;48.770;9.190;2022-10-16T00:23:37;17.70;99.90
5128;DHT22;2582;48.770;9.190;2022-10-16T00:26:12;17.60;99.90
5128;DHT22;2582;48.770;9.190;2022-10-16T00:28:38;17.70;99.90
5128;DHT22;2582;48.770;9.190;2022-10-16T00:31:09;17.60;99.90
5128;DHT22;2582;48.770;9.190;2022-10-16T00:33:36;17.60;99.90
5128;DHT22;2582;48.770;9.190;2022-10-16T00:36:04;17.60;99.90
5128;DHT22;2582;48.770;9.190;2022-10-16T00:38:30;17.50;99.90
5128;DHT22;2582;48.770;9.190;2022-10-16T00:40:56;17.40;99.90
5128;DHT22;2582;48.770;9.190;2022-10-16T00:46:21;17.30;99.90
5128;DHT22;2582;48.770;9.190;2022-10-16T00:49:11;17.30;99.90
5128;DHT22;2582;48.770;9.190;2022-10-16T00:51:45;17.40;99.90
5128;DHT22;2582;48.770;9.190;2022-10-16T00:54:14;17.40;99.90
5128;DHT22;2582;48.770;9.190;2022-10-16T00:56:41;17.50;99.90
5128;DHT22;2582;48.770;9.190;2022-10-16T00:59:16;17.50;99.90
5128;DHT22;2582;48.770;9.190;2022-10-16T01:01:41;17.40;99.90
5128;DHT22;2582;48.770;9.190;2022-10-16T01:04:07;17.40;99.90
5128;DHT22;2582;48.770;9.190;2022-10-16T01:12:42;17.40;99.90
5128;DHT22;2582;48.770;9.190;2022-10-16T01:15:25;17.30;99.90
5128;DHT22;2582;48.770;9.190;2022-10-16T01:21:10;17.20;99.90
5128;DHT22;2582;48.770;9.190;2022-10-16T01:34:58;17.30;99.90
5128;DHT22;2582;48.770;9.190;2022-10-16T01:37:35;17.30;99.90
5128;DHT22;2582;48.770;9.190;2022-10-16T01:40:06;17.30;99.90
5128;DHT22;2582;48.770;9.190;2022-10-16T01:42:36;17.20;99.90
5128;DHT22;2582;48.770;9.190;2022-10-16T01:45:04;17.20;99.90
5128;DHT22;2582;48.770;9.190;2022-10-16T01:47:32;17.10;99.90
5128;DHT22;2582;48.770;9.190;2022-10-16T01:50:02;17.20;99.90
5128;DHT22;2582;48.770;9.190;2022-10-16T01:52:32;17.30;99.90
5128;DHT22;2582;48.770;9.190;2022-10-16T01:55:00;17.40;99.90
5128;DHT22;2582;48.770;9.190;2022-10-16T01:57:28;17.40;99.90
5128;DHT22;2582;48.770;9.190;2022-10-16T01:59:57;17.60;99.90
5128;DHT22;2582;48.770;9.190;2022-10-16T02:02:26;17.70;99.90
5128;DHT22;2582;48.770;9.190;2022-10-16T02:05:03;17.70;99.90
5128;DHT22;2582;48.770;9.190;2022-10-16T02:07:30;17.70;99.90
5128;DHT22;2582;48.770;9.190;2022-10-16T02:09:55;17.70;99.90
5128;DHT22;2582;48.770;9.190;2022-10-16T02:12:30;17.70;99.90
5128;DHT22;2582;48.770;9.190;2022-10-16T02:14:57;17.80;99.90
5128;DHT22;2582;48.770;9.190;2022-10-16T02:17:23;17.80;99.90
5128;DHT22;2582;48.770;9.190;2022-10-16T02:19:51;17.80;99.90
5128;DHT22;2582;48.770;9.190;2022-10-16T02:22:24;17.70;99.90
5128;DHT22;2582;48.770;9.190;2022-10-16T02:25:17;17.80;99.90
5128;DHT22;2582;48.770;9.190;2022-10-16T02:27:54;17.80;99.90
5128;DHT22;2582;48.770;9.190;2022-10-16T02:30:27;17.80;99.90
5128;DHT22;2582;48.770;9.190;2022-10-16T02:32:55;17.80;99.90
5128;DHT22;2582;48.770;9.190;2022-10-16T02:35:23;17.70;99.90
5128;DHT22;2582;48.770;9.190;2022-10-16T02:37:49;17.70;99.90
5128;DHT22;2582;48.770;9.190;2022-10-16T02:40:17;17.80;99.90
5128;DHT22;2582;48.770;9.190;2022-10-16T02:42:42;17.70;99.90
5128;DHT22;2582;48.770;9.190;2022-10-16T02:45:09;17.70;99.90
5128;DHT22;2582;48.770;9.190;2022-10-16T02:47:35;17.70;99.90
5128;DHT22;2582;48.770;9.190;2022-10-16T02:50:01;17.80;99.90
5128;DHT22;2582;48.770;9.190;2022-10-16T02:52:26;17.80;99.90
5128;DHT22;2582;48.770;9.190;2022-10-16T02:54:52;17.80;99.90
5128;DHT22;2582;48.770;9.190;2022-10-16T02:57:18;17.70;99.90
5128;DHT22;2582;48.770;9.190;2022-10-16T02:59:44;17.70;99.90
5128;DHT22;2582;48.770;9.190;2022-10-16T03:02:10;17.70;99.90
5128;DHT22;2582;48.770;9.190;2022-10-16T03:04:35;17.70;99.90
5128;DHT22;2582;48.770;9.190;2022-10-16T03:07:01;17.70;99.90
5128;DHT22;2582;48.770;9.190;2022-10-16T03:09:27;17.60;99.90
5128;DHT22;2582;48.770;9.190;2022-10-16T03:11:52;17.60;99.90
5128;DHT22;2582;48.770;9.190;2022-10-16T03:14:18;17.60;99.90
5128;DHT22;2582;48.770;9.190;2022-10-16T03:16:44;17.60;99.90
5128;DHT22;2582;48.770;9.190;2022-10-16T03:19:09;17.60;99.90
5128;DHT22;2582;48.770;9.190;2022-10-16T03:21:35;17.50;99.90
5128;DHT22;2582;48.770;9.190;2022-10-16T03:24:00;17.50;99.90
5128;DHT22;2582;48.770;9.190;2022-10-16T03:26:26;17.50;99.90
5128;DHT22;2582;48.770;9.190;2022-10-16T03:28:51;17.60;99.90
5128;DHT22;2582;48.770;9.190;2022-10-16T03:31:17;17.60;99.90
5128;DHT22;2582;48.770;9.190;2022-10-16T03:33:42;17.50;99.90
5128;DHT22;2582;48.770;9.190;2022-10-16T03:36:08;17.50;99.90
5128;DHT22;2582;48.770;9.190;2022-10-16T03:38:34;17.50;99.90
5128;DHT22;2582;48.770;9.190;2022-10-16T03:40:59;17.40;99.90
5128;DHT22;2582;48.770;9.190;2022-10-16T03:43:25;17.30;99.90
5128;DHT22;2582;48.770;9.190;2022-10-16T03:45:51;17.30;99.90
5128;DHT22;2582;48.770;9.190;2022-10-16T03:48:17;17.30;99.90
5128;DHT22;2582;48.770;9.190;2022-10-16T03:50:43;17.20;99.90
5128;DHT22;2582;48.770;9.190;2022-10-16T03:53:09;17.10;99.90
5128;DHT22;2582;48.770;9.190;2022-10-16T03:55:35;17.20;99.90
5128;DHT22;2582;48.770;9.190;2022-10-16T03:58:00;17.00;99.90
5128;DHT22;2582;48.770;9.190;2022-10-16T04:00:26;17.00;99.90
5128;DHT22;2582;48.770;9.190;2022-10-16T04:02:52;17.00;99.90
5128;DHT22;2582;48.770;9.190;2022-10-16T04:05:17;17.00;99.90
5128;DHT22;2582;48.770;9.190;2022-10-16T04:07:43;17.00;99.90
5128;DHT22;2582;48.770;9.190;2022-10-16T04:10:09;17.00;99.90
5128;DHT22;2582;48.770;9.190;2022-10-16T04:12:34;17.00;99.90
5128;DHT22;2582;48.770;9.190;2022-10-16T04:15:00;17.00;99.90
5128;DHT22;2582;48.770;9.190;2022-10-16T04:17:25;17.00;99.90
5128;DHT22;2582;48.770;9.190;2022-10-16T04:19:51;17.00;99.90
5128;DHT22;2582;48.770;9.190;2022-10-16T04:22:16;17.00;99.90
5128;DHT22;2582;48.770;9.190;2022-10-16T04:24:42;17.10;99.90
5128;DHT22;2582;48.770;9.190;2022-10-16T04:27:08;17.00;99.90
5128;DHT22;2582;48.770;9.190;2022-10-16T04:29:33;17.00;99.90
5128;DHT22;2582;48.770;9.190;2022-10-16T04:31:59;16.90;99.90
5128;DHT22;2582;48.770;9.190;2022-10-16T04:34:24;17.00;99.90
5128;DHT22;2582;48.770;9.190;2022-10-16T04:36:50;17.00;99.90
5128;DHT22;2582;48.770;9.190;2022-10-16T04:39:16;17.00;99.90
5128;DHT22;2582;48.770;9.190;2022-10-16T04:41:42;17.00;99.90
5128;DHT22;2582;48.770;9.190;2022-10-16T04:44:07;17.10;99.90
5128;DHT22;2582;48.770;9.190;2022-10-16T04:46:33;17.00;99.90
5128;DHT22;2582;48.770;9.190;2022-10-16T04:48:59;17.00;99.90
5128;DHT22;2582;48.770;9.190;2022-10-16T04:51:24;17.00;99.90
5128;DHT22;2582;48.770;9.190;2022-10-16T04:53:51;17.00;99.90
5128;DHT22;2582;48.770;9.190;2022-10-16T04:56:16;17.10;99.90
5128;DHT22;2582;48.770;9.190;2022-10-16T04:58:42;17.00;99.90
5128;DHT22;2582;48.770;9.190;2022-10-16T05:01:08;17.00;99.90
5128;DHT22;2582;48.770;9.190;2022-10-16T05:03:33;17.00;99.90
5128;DHT22;2582;48.770;9.190;2022-10-16T05:05:59;17.10;99.90
5128;DHT22;2582;48.770;9.190;2022-10-16T05:08:24;17.00;99.90
5128;DHT22;2582;48.770;9.190;2022-10-16T05:10:50;17.00;99.90
5128;DHT22;2582;48.770;9.190;2022-10-16T05:13:16;17.00;99.90
5128;DHT22;2582;48.770;9.190;2022-10-16T05:15:41;16.90;99.90
5128;DHT22;2582;48.770;9.190;2022-10-16T05:18:08;16.80;99.90
5128;DHT22;2582;48.770;9.190;2022-10-16T05:20:34;16.80;99.90
5128;DHT22;2582;48.770;9.190;2022-10-16T05:22:59;16.70;99.90
5128;DHT22;2582;48.770;9.190;2022-10-16T05:25:25;16.70;99.90
5128;DHT22;2582;48.770;9.190;2022-10-16T05:27:51;16.60;99.90
5128;DHT22;2582;48.770;9.190;2022-10-16T05:30:18;16.50;99.90
5128;DHT22;2582;48.770;9.190;2022-10-16T05:32:48;16.50;99.90
5128;DHT22;2582;48.770;9.190;2022-10-16T05:35:14;16.50;99.90
5128;DHT22;2582;48.770;9.190;2022-10-16T05:37:40;16.60;99.90
5128;DHT22;2582;48.770;9.190;2022-10-16T05:40:06;16.70;99.90
5128;DHT22;2582;48.770;9.190;2022-10-16T05:42:32;16.70;99.90
5128;DHT22;2582;48.770;9.190;2022-10-16T05:44:57;16.70;99.90
5128;DHT22;2582;48.770;9.190;2022-10-16T05:47:23;16.70;99.90
5128;DHT22;2582;48.770;9.190;2022-10-16T05:49:48;16.70;99.90
5128;DHT22;2582;48.770;9.190;2022-10-16T05:52:14;16.80;99.90
5128;DHT22;2582;48.770;9.190;2022-10-16T05:54:39;16.70;99.90
5128;DHT22;2582;48.770;9.190;2022-10-16T05:57:05;16.60;99.90
5128;DHT22;2582;48.770;9.190;2022-10-16T05:59:31;16.70;99.90
5128;DHT22;2582;48.770;9.190;2022-10-16T06:01:57;16.70;99.90
5128;DHT22;2582;48.770;9.190;2022-10-16T06:04:23;16.80;99.90
5128;DHT22;2582;48.770;9.190;2022-10-16T06:06:48;16.80;99.90
5128;DHT22;2582;48.770;9.190;2022-10-16T06:09:14;16.80;99.90
5128;DHT22;2582;48.770;9.190;2022-10-16T06:11:39;16.80;99.90
5128;DHT22;2582;48.770;9.190;2022-10-16T06:14:05;16.90;99.90
5128;DHT22;2582;48.770;9.190;2022-10-16T06:16:35;16.80;99.90
5128;DHT22;2582;48.770;9.190;2022-10-16T06:19:02;16.90;99.90
5128;DHT22;2582;48.770;9.190;2022-10-16T06:21:29;16.90;99.90
5128;DHT22;2582;48.770;9.190;2022-10-16T06:23:56;16.90;99.90
5128;DHT22;2582;48.770;9.190;2022-10-16T06:26:24;17.00;99.90
5128;DHT22;2582;48.770;9.190;2022-10-16T06:28:50;17.10;99.90
5128;DHT22;2582;48.770;9.190;2022-10-16T06:31:16;17.00;99.90
5128;DHT22;2582;48.770;9.190;2022-10-16T06:33:42;17.10;99.90
5128;DHT22;2582;48.770;9.190;2022-10-16T06:36:14;17.20;99.90
5128;DHT22;2582;48.770;9.190;2022-10-16T06:38:41;17.00;99.90
5128;DHT22;2582;48.770;9.190;2022-10-16T06:41:07;17.10;99.90
5128;DHT22;2582;48.770;9.190;2022-10-16T06:43:33;17.20;99.90
5128;DHT22;2582;48.770;9.190;2022-10-16T06:46:03;17.30;99.90
5128;DHT22;2582;48.770;9.190;2022-10-16T06:48:30;17.40;99.90
5128;DHT22;2582;48.770;9.190;2022-10-16T06:53:23;17.50;99.90
5128;DHT22;2582;48.770;9.190;2022-10-16T06:55:48;17.50;99.90
5128;DHT22;2582;48.770;9.190;2022-10-16T06:58:14;17.50;99.90
5128;DHT22;2582;48.770;9.190;2022-10-16T07:00:39;17.60;99.90
5128;DHT22;2582;48.770;9.190;2022-10-16T07:03:05;17.50;99.90
5128;DHT22;2582;48.770;9.190;2022-10-16T07:05:30;17.60;99.90
5128;DHT22;2582;48.770;9.190;2022-10-16T07:07:56;17.70;99.90
5128;DHT22;2582;48.770;9.190;2022-10-16T07:10:21;17.80;99.90
5128;DHT22;2582;48.770;9.190;2022-10-16T07:12:49;17.80;99.90
5128;DHT22;2582;48.770;9.190;2022-10-16T07:15:15;17.90;99.90
5128;DHT22;2582;48.770;9.190;2022-10-16T07:17:40;18.10;99.90
5128;DHT22;2582;48.770;9.190;2022-10-16T07:20:06;18.30;99.90
5128;DHT22;2582;48.770;9.190;2022-10-16T07:22:32;18.30;99.90
5128;DHT22;2582;48.770;9.190;2022-10-16T07:24:58;18.40;99.90
5128;DHT22;2582;48.770;9.190;2022-10-16T07:27:24;18.40;99.90
5128;DHT22;2582;48.770;9.190;2022-10-16T07:29:49;18.50;99.90
5128;DHT22;2582;48.770;9.190;2022-10-16T07:32:15;18.50;99.90
5128;DHT22;2582;48.770;9.190;2022-10-16T07:34:41;18.50;99.90
5128;DHT22;2582;48.770;9.190;2022-10-16T07:37:07;18.50;99.90
5128;DHT22;2582;48.770;9.190;2022-10-16T07:39:32;18.40;99.90
5128;DHT22;2582;48.770;9.190;2022-10-16T07:41:58;18.30;99.90
5128;DHT22;2582;48.770;9.190;2022-10-16T07:44:24;18.30;99.90
5128;DHT22;2582;48.770;9.190;2022-10-16T07:46:50;18.40;99.90
5128;DHT22;2582;48.770;9.190;2022-10-16T07:49:15;18.50;99.90
5128;DHT22;2582;48.770;9.190;2022-10-16T07:51:41;18.50;99.90
5128;DHT22;2582;48.770;9.190;2022-10-16T07:54:08;18.60;99.90
5128;DHT22;2582;48.770;9.190;2022-10-16T07:56:34;18.60;99.90
5128;DHT22;2582;48.770;9.190;2022-10-16T07:59:00;18.70;99.90
5128;DHT22;2582;48.770;9.190;2022-10-16T08:01:25;18.90;99.90
5128;DHT22;2582;48.770;9.190;2022-10-16T08:03:51;18.90;99.90
5128;DHT22;2582;48.770;9.190;2022-10-16T08:06:18;19.00;99.90
5128;DHT22;2582;48.770;9.190;2022-10-16T08:08:44;19.00;99.90
5128;DHT22;2582;48.770;9.190;2022-10-16T08:11:10;19.10;99.90
5128;DHT22;2582;48.770;9.190;2022-10-16T08:13:36;19.30;99.90
5128;DHT22;2582;48.770;9.190;2022-10-16T08:16:03;19.40;99.90
5128;DHT22;2582;48.770;9.190;2022-10-16T08:18:40;19.50;99.90
5128;DHT22;2582;48.770;9.190;2022-10-16T08:21:16;19.70;99.90
5128;DHT22;2582;48.770;9.190;2022-10-16T08:23:42;19.70;99.90
5128;DHT22;2582;48.770;9.190;2022-10-16T08:26:09;19.60;99.90
5128;DHT22;2582;48.770;9.190;2022-10-16T08:28:35;19.70;99.90
5128;DHT22;2582;48.770;9.190;2022-10-16T08:31:12;19.80;99.90
5128;DHT22;2582;48.770;9.190;2022-10-16T08:33:40;19.90;99.90
5128;DHT22;2582;48.770;9.190;2022-10-16T08:36:06;19.90;99.90
5128;DHT22;2582;48.770;9.190;2022-10-16T08:38:33;20.10;99.90
5128;DHT22;2582;48.770;9.190;2022-10-16T08:49:27;20.40;99.90
5128;DHT22;2582;48.770;9.190;2022-10-16T08:51:55;20.50;99.90
5128;DHT22;2582;48.770;9.190;2022-10-16T08:54:36;20.30;99.90
5128;DHT22;2582;48.770;9.190;2022-10-16T08:57:25;20.30;99.90
5128;DHT22;2582;48.770;9.190;2022-10-16T08:59:55;20.40;99.90
5128;DHT22;2582;48.770;9.190;2022-10-16T09:10:33;20.90;99.90
5128;DHT22;2582;48.770;9.190;2022-10-16T09:13:09;21.10;99.90
5128;DHT22;2582;48.770;9.190;2022-10-16T09:18:48;21.30;99.90
5128;DHT22;2582;48.770;9.190;2022-10-16T09:21:26;21.40;99.90
5128;DHT22;2582;48.770;9.190;2022-10-16T09:23:58;21.20;99.90
5128;DHT22;2582;48.770;9.190;2022-10-16T09:26:24;21.20;99.90
5128;DHT22;2582;48.770;9.190;2022-10-16T09:28:52;21.40;99.90
5128;DHT22;2582;48.770;9.190;2022-10-16T09:31:20;21.70;99.90
5128;DHT22;2582;48.770;9.190;2022-10-16T09:33:57;21.90;99.90
5128;DHT22;2582;48.770;9.190;2022-10-16T09:36:23;21.90;99.90
5128;DHT22;2582;48.770;9.190;2022-10-16T09:39:03;21.80;99.90
5128;DHT22;2582;48.770;9.190;2022-10-16T09:41:29;21.70;99.90
5128;DHT22;2582;48.770;9.190;2022-10-16T09:43:57;21.60;99.90
5128;DHT22;2582;48.770;9.190;2022-10-16T09:46:36;21.50;99.90
5128;DHT22;2582;48.770;9.190;2022-10-16T09:49:24;21.60;99.90
5128;DHT22;2582;48.770;9.190;2022-10-16T09:51:51;21.70;99.90
5128;DHT22;2582;48.770;9.190;2022-10-16T09:54:19;21.60;99.90
5128;DHT22;2582;48.770;9.190;2022-10-16T09:56:45;21.80;99.90
5128;DHT22;2582;48.770;9.190;2022-10-16T09:59:19;22.00;99.90
5128;DHT22;2582;48.770;9.190;2022-10-16T10:01:47;22.20;99.90
5128;DHT22;2582;48.770;9.190;2022-10-16T10:04:14;22.30;99.90
5128;DHT22;2582;48.770;9.190;2022-10-16T10:06:43;22.30;99.90
5128;DHT22;2582;48.770;9.190;2022-10-16T10:09:22;22.60;99.90
5128;DHT22;2582;48.770;9.190;2022-10-16T10:11:54;22.80;99.90
5128;DHT22;2582;48.770;9.190;2022-10-16T10:14:26;23.00;99.90
5128;DHT22;2582;48.770;9.190;2022-10-16T10:19:36;23.30;99.90
5128;DHT22;2582;48.770;9.190;2022-10-16T10:22:17;23.20;99.90
5128;DHT22;2582;48.770;9.190;2022-10-16T10:25:30;23.50;99.90
5128;DHT22;2582;48.770;9.190;2022-10-16T10:28:00;23.60;99.90
5128;DHT22;2582;48.770;9.190;2022-10-16T10:33:47;24.00;99.90
5128;DHT22;2582;48.770;9.190;2022-10-16T10:38:51;24.20;99.90
5128;DHT22;2582;48.770;9.190;2022-10-16T10:44:23;25.50;99.90
5128;DHT22;2582;48.770;9.190;2022-10-16T10:46:57;25.60;99.90
5128;DHT22;2582;48.770;9.190;2022-10-16T10:54:51;26.10;99.90
5128;DHT22;2582;48.770;9.190;2022-10-16T10:57:30;27.70;99.90
5128;DHT22;2582;48.770;9.190;2022-10-16T11:05:56;31.80;93.00
5128;DHT22;2582;48.770;9.190;2022-10-16T11:11:14;32.20;90.00
5128;DHT22;2582;48.770;9.190;2022-10-16T11:14:02;32.60;90.20
5128;DHT22;2582;48.770;9.190;2022-10-16T11:16:39;33.40;86.30
5128;DHT22;2582;48.770;9.190;2022-10-16T11:19:29;33.70;81.90
5128;DHT22;2582;48.770;9.190;2022-10-16T11:22:03;33.40;80.10
5128;DHT22;2582;48.770;9.190;2022-10-16T11:25:12;32.50;84.30
5128;DHT22;2582;48.770;9.190;2022-10-16T11:27:47;31.40;88.60
5128;DHT22;2582;48.770;9.190;2022-10-16T11:30:22;30.20;91.40
5128;DHT22;2582;48.770;9.190;2022-10-16T11:32:56;31.40;88.40
5128;DHT22;2582;48.770;9.190;2022-10-16T11:35:49;32.70;86.00
5128;DHT22;2582;48.770;9.190;2022-10-16T11:38:39;33.20;82.30
5128;DHT22;2582;48.770;9.190;2022-10-16T11:41:39;31.60;86.20
5128;DHT22;2582;48.770;9.190;2022-10-16T11:49:46;32.60;85.30
5128;DHT22;2582;48.770;9.190;2022-10-16T11:52:38;34.20;81.30
5128;DHT22;2582;48.770;9.190;2022-10-16T11:55:15;35.80;76.50
5128;DHT22;2582;48.770;9.190;2022-10-16T11:57:54;36.10;72.20
5128;DHT22;2582;48.770;9.190;2022-10-16T12:00:35;34.90;72.60
5128;DHT22;2582;48.770;9.190;2022-10-16T12:08:55;33.80;74.40
5128;DHT22;2582;48.770;9.190;2022-10-16T12:14:03;35.60;69.10
5128;DHT22;2582;48.770;9.190;2022-10-16T12:16:29;35.10;69.70
5128;DHT22;2582;48.770;9.190;2022-10-16T12:19:12;35.70;68.60
5128;DHT22;2582;48.770;9.190;2022-10-16T12:21:38;35.60;68.60
5128;DHT22;2582;48.770;9.190;2022-10-16T12:24:04;34.10;71.60
5128;DHT22;2582;48.770;9.190;2022-10-16T12:26:33;33.60;68.80
5128;DHT22;2582;48.770;9.190;2022-10-16T12:32:04;34.50;67.50
5128;DHT22;2582;48.770;9.190;2022-10-16T12:39:44;33.00;69.90
5128;DHT22;2582;48.770;9.190;2022-10-16T12:44:45;34.30;66.50
5128;DHT22;2582;48.770;9.190;2022-10-16T12:47:22;33.20;68.90
5128;DHT22;2582;48.770;9.190;2022-10-16T12:49:52;33.80;68.90
5128;DHT22;2582;48.770;9.190;2022-10-16T12:52:36;33.60;69.60
5128;DHT22;2582;48.770;9.190;2022-10-16T12:55:03;33.30;69.40
5128;DHT22;2582;48.770;9.190;2022-10-16T13:00:41;32.10;73.20
5128;DHT22;2582;48.770;9.190;2022-10-16T13:14:38;28.00;86.40
5128;DHT22;2582;48.770;9.190;2022-10-16T13:17:33;28.80;85.30
5128;DHT22;2582;48.770;9.190;2022-10-16T13:23:15;29.60;80.60
5128;DHT22;2582;48.770;9.190;2022-10-16T13:28:39;28.80;88.10
5128;DHT22;2582;48.770;9.190;2022-10-16T13:31:05;28.60;86.60
5128;DHT22;2582;48.770;9.190;2022-10-16T13:33:39;27.70;88.00
5128;DHT22;2582;48.770;9.190;2022-10-16T13:36:06;26.90;90.50
5128;DHT22;2582;48.770;9.190;2022-10-16T13:38:34;26.90;95.50
5128;DHT22;2582;48.770;9.190;2022-10-16T13:41:14;26.70;97.40
5128;DHT22;2582;48.770;9.190;2022-10-16T13:43:48;26.60;99.20
5128;DHT22;2582;48.770;9.190;2022-10-16T13:46:20;26.30;99.70
5128;DHT22;2582;48.770;9.190;2022-10-16T13:49:04;26.10;99.90
5128;DHT22;2582;48.770;9.190;2022-10-16T13:51:31;25.70;99.90
5128;DHT22;2582;48.770;9.190;2022-10-16T13:53:57;25.70;99.90
5128;DHT22;2582;48.770;9.190;2022-10-16T13:56:27;25.80;99.90
5128;DHT22;2582;48.770;9.190;2022-10-16T13:59:20;25.70;99.90
5128;DHT22;2582;48.770;9.190;2022-10-16T14:01:47;25.70;99.90
5128;DHT22;2582;48.770;9.190;2022-10-16T14:04:14;25.60;99.90
5128;DHT22;2582;48.770;9.190;2022-10-16T14:06:44;25.70;99.90
5128;DHT22;2582;48.770;9.190;2022-10-16T14:12:00;25.60;99.90
5128;DHT22;2582;48.770;9.190;2022-10-16T14:14:35;25.50;99.90
5128;DHT22;2582;48.770;9.190;2022-10-16T14:17:05;25.20;99.90
5128;DHT22;2582;48.770;9.190;2022-10-16T14:19:31;24.80;99.90
5128;DHT22;2582;48.770;9.190;2022-10-16T14:21:58;24.60;99.90
5128;DHT22;2582;48.770;9.190;2022-10-16T14:24:31;24.50;99.90
5128;DHT22;2582;48.770;9.190;2022-10-16T14:26:58;24.40;99.90
5128;DHT22;2582;48.770;9.190;2022-10-16T14:29:25;24.40;99.90
5128;DHT22;2582;48.770;9.190;2022-10-16T14:32:22;24.40;99.90
5128;DHT22;2582;48.770;9.190;2022-10-16T14:34:53;24.20;99.90
5128;DHT22;2582;48.770;9.190;2022-10-16T14:37:24;24.30;99.90
5128;DHT22;2582;48.770;9.190;2022-10-16T14:39:51;24.20;99.90
5128;DHT22;2582;48.770;9.190;2022-10-16T14:42:20;24.30;99.90
5128;DHT22;2582;48.770;9.190;2022-10-16T14:44:50;24.20;99.90
5128;DHT22;2582;48.770;9.190;2022-10-16T14:47:23;24.20;99.90
5128;DHT22;2582;48.770;9.190;2022-10-16T14:49:52;24.00;99.90
5128;DHT22;2582;48.770;9.190;2022-10-16T14:52:20;23.90;99.90
5128;DHT22;2582;48.770;9.190;2022-10-16T14:54:50;23.90;99.90
5128;DHT22;2582;48.770;9.190;2022-10-16T14:57:20;23.90;99.90
5128;DHT22;2582;48.770;9.190;2022-10-16T14:59:48;23.90;99.90
5128;DHT22;2582;48.770;9.190;2022-10-16T15:02:33;23.80;99.90
5128;DHT22;2582;48.770;9.190;2022-10-16T15:05:20;23.80;99.90
5128;DHT22;2582;48.770;9.190;2022-10-16T15:07:47;23.70;99.90
5128;DHT22;2582;48.770;9.190;2022-10-16T15:10:16;23.50;99.90
5128;DHT22;2582;48.770;9.190;2022-10-16T15:12:42;23.50;99.90
5128;DHT22;2582;48.770;9.190;2022-10-16T15:17:49;23.20;99.90
5128;DHT22;2582;48.770;9.190;2022-10-16T15:20:19;23.10;99.90
5128;DHT22;2582;48.770;9.190;2022-10-16T15:22:44;23.10;99.90
5128;DHT22;2582;48.770;9.190;2022-10-16T15:25:32;22.90;99.90
5128;DHT22;2582;48.770;9.190;2022-10-16T15:27:59;22.80;99.90
5128;DHT22;2582;48.770;9.190;2022-10-16T15:30:26;22.60;99.90
5128;DHT22;2582;48.770;9.190;2022-10-16T15:32:51;22.50;99.90
5128;DHT22;2582;48.770;9.190;2022-10-16T15:35:17;22.60;99.90
5128;DHT22;2582;48.770;9.190;2022-10-16T15:37:43;22.50;99.90
5128;DHT22;2582;48.770;9.190;2022-10-16T15:40:10;22.40;99.90
5128;DHT22;2582;48.770;9.190;2022-10-16T15:42:35;22.50;99.90
5128;DHT22;2582;48.770;9.190;2022-10-16T15:45:01;22.40;99.90
5128;DHT22;2582;48.770;9.190;2022-10-16T15:47:27;22.30;99.90
5128;DHT22;2582;48.770;9.190;2022-10-16T15:49:52;22.30;99.90
5128;DHT22;2582;48.770;9.190;2022-10-16T15:52:18;22.40;99.90
5128;DHT22;2582;48.770;9.190;2022-10-16T15:54:43;22.20;99.90
5128;DHT22;2582;48.770;9.190;2022-10-16T15:57:09;22.20;99.90
5128;DHT22;2582;48.770;9.190;2022-10-16T15:59:34;22.10;99.90
5128;DHT22;2582;48.770;9.190;2022-10-16T16:02:00;22.10;99.90
5128;DHT22;2582;48.770;9.190;2022-10-16T16:04:26;22.10;99.90
5128;DHT22;2582;48.770;9.190;2022-10-16T16:06:51;22.00;99.90
5128;DHT22;2582;48.770;9.190;2022-10-16T16:09:17;21.90;99.90
5128;DHT22;2582;48.770;9.190;2022-10-16T16:11:42;21.80;99.90
5128;DHT22;2582;48.770;9.190;2022-10-16T16:14:12;21.60;99.90
5128;DHT22;2582;48.770;9.190;2022-10-16T16:16:38;21.50;99.90
5128;DHT22;2582;48.770;9.190;2022-10-16T16:19:05;21.40;99.90
5128;DHT22;2582;48.770;9.190;2022-10-16T16:21:31;21.20;99.90
5128;DHT22;2582;48.770;9.190;2022-10-16T16:23:57;21.10;99.90
5128;DHT22;2582;48.770;9.190;2022-10-16T16:26:27;21.00;99.90
5128;DHT22;2582;48.770;9.190;2022-10-16T16:28:58;20.80;99.90
5128;DHT22;2582;48.770;9.190;2022-10-16T16:31:25;20.70;99.90
5128;DHT22;2582;48.770;9.190;2022-10-16T16:33:50;20.60;99.90
5128;DHT22;2582;48.770;9.190;2022-10-16T16:36:17;20.50;99.90
5128;DHT22;2582;48.770;9.190;2022-10-16T16:38:44;20.40;99.90
5128;DHT22;2582;48.770;9.190;2022-10-16T16:41:17;20.30;99.90
5128;DHT22;2582;48.770;9.190;2022-10-16T16:43:43;20.20;99.90
5128;DHT22;2582;48.770;9.190;2022-10-16T16:46:09;20.20;99.90
5128;DHT22;2582;48.770;9.190;2022-10-16T16:48:35;20.20;99.90
5128;DHT22;2582;48.770;9.190;2022-10-16T16:51:05;20.20;99.90
5128;DHT22;2582;48.770;9.190;2022-10-16T16:53:34;20.10;99.90
5128;DHT22;2582;48.770;9.190;2022-10-16T16:56:06;20.10;99.90
5128;DHT22;2582;48.770;9.190;2022-10-16T16:58:32;20.00;99.90
5128;DHT22;2582;48.770;9.190;2022-10-16T17:00:58;19.90;99.90
5128;DHT22;2582;48.770;9.190;2022-10-16T17:03:28;19.80;99.90
5128;DHT22;2582;48.770;9.190;2022-10-16T17:06:02;19.80;99.90
5128;DHT22;2582;48.770;9.190;2022-10-16T17:08:28;19.70;99.90
5128;DHT22;2582;48.770;9.190;2022-10-16T17:10:55;19.60;99.90
5128;DHT22;2582;48.770;9.190;2022-10-16T17:13:22;19.60;99.90
5128;DHT22;2582;48.770;9.190;2022-10-16T17:15:50;19.60;99.90
5128;DHT22;2582;48.770;9.190;2022-10-16T17:18:16;19.50;99.90
5128;DHT22;2582;48.770;9.190;2022-10-16T17:20:42;19.50;99.90
5128;DHT22;2582;48.770;9.190;2022-10-16T17:23:09;19.50;99.90
5128;DHT22;2582;48.770;9.190;2022-10-16T17:25:37;19.40;99.90
5128;DHT22;2582;48.770;9.190;2022-10-16T17:28:03;19.30;99.90
5128;DHT22;2582;48.770;9.190;2022-10-16T17:30:29;19.10;99.90
5128;DHT22;2582;48.770;9.190;2022-10-16T17:32:54;19.10;99.90
5128;DHT22;2582;48.770;9.190;2022-10-16T17:35:20;19.20;99.90
5128;DHT22;2582;48.770;9.190;2022-10-16T17:37:45;19.10;99.90
5128;DHT22;2582;48.770;9.190;2022-10-16T17:40:11;19.10;99.90
5128;DHT22;2582;48.770;9.190;2022-10-16T17:42:37;18.90;99.90
5128;DHT22;2582;48.770;9.190;2022-10-16T17:45:03;18.90;99.90
5128;DHT22;2582;48.770;9.190;2022-10-16T17:47:29;18.90;99.90
5128;DHT22;2582;48.770;9.190;2022-10-16T17:49:54;18.90;99.90
5128;DHT22;2582;48.770;9.190;2022-10-16T17:52:21;18.80;99.90
5128;DHT22;2582;48.770;9.190;2022-10-16T17:54:49;18.60;99.90
5128;DHT22;2582;48.770;9.190;2022-10-16T17:57:16;18.50;99.90
5128;DHT22;2582;48.770;9.190;2022-10-16T17:59:42;18.50;99.90
5128;DHT22;2582;48.770;9.190;2022-10-16T18:02:11;18.50;99.90
5128;DHT22;2582;48.770;9.190;2022-10-16T18:04:36;18.40;99.90
5128;DHT22;2582;48.770;9.190;2022-10-16T18:07:02;18.40;99.90
5128;DHT22;2582;48.770;9.190;2022-10-16T18:09:28;18.40;99.90
5128;DHT22;2582;48.770;9.190;2022-10-16T18:11:54;18.30;99.90
5128;DHT22;2582;48.770;9.190;2022-10-16T18:14:26;18.30;99.90
5128;DHT22;2582;48.770;9.190;2022-10-16T18:16:52;18.30;99.90